createdAt,value
2019-04-07T00:02:07.558Z,10.76
2019-04-07T00:04:35.179Z,10.78
2019-04-07T00:07:03.722Z,10.77
2019-04-07T00:09:32.017Z,10.77
2019-04-07T00:11:59.690Z,10.77
2019-04-07T00:14:28.150Z,10.77
2019-04-07T00:16:55.875Z,10.75
2019-04-07T00:19:24.609Z,10.73
2019-04-07T00:21:52.538Z,10.73
2019-04-07T00:24:20.636Z,10.70
2019-04-07T00:26:48.725Z,10.70
2019-04-07T00:29:17.360Z,10.70
2019-04-07T00:31:47.851Z,10.69
2019-04-07T00:34:17.526Z,10.69
2019-04-07T00:36:45.906Z,10.69
2019-04-07T00:39:13.688Z,10.69
2019-04-07T00:41:41.767Z,10.69
2019-04-07T00:44:11.745Z,10.68
2019-04-07T00:46:39.791Z,10.64
2019-04-07T00:49:07.474Z,10.64
2019-04-07T00:51:35.980Z,10.59
2019-04-07T00:54:03.675Z,10.59
2019-04-07T00:56:31.327Z,10.52
2019-04-07T00:59:00.328Z,10.52
2019-04-07T01:01:28.479Z,10.46
2019-04-07T01:03:56.825Z,10.46
2019-04-07T01:06:25.230Z,10.41
2019-04-07T01:08:53.064Z,10.32
2019-04-07T01:11:21.626Z,10.32
2019-04-07T01:13:49.657Z,10.21
2019-04-07T01:16:17.405Z,10.15
2019-04-07T01:18:44.990Z,10.09
2019-04-07T01:21:13.001Z,10.09
2019-04-07T01:23:41.431Z,9.98
2019-04-07T01:26:09.699Z,9.98
2019-04-07T01:28:37.913Z,9.87
2019-04-07T01:31:05.612Z,9.83
2019-04-07T01:33:36.777Z,9.78
2019-04-07T01:36:07.287Z,9.76
2019-04-07T01:38:35.776Z,9.74
2019-04-07T01:41:13.631Z,9.74
2019-04-07T01:43:49.370Z,9.75
2019-04-07T01:46:33.114Z,9.75
2019-04-07T01:49:10.872Z,9.74
2019-04-07T01:51:50.447Z,9.76
2019-04-07T01:54:34.554Z,9.72
2019-04-07T01:57:13.499Z,9.69
2019-04-07T02:00:03.168Z,9.69
2019-04-07T02:02:44.679Z,9.59
2019-04-07T02:05:29.899Z,9.54
2019-04-07T02:08:15.460Z,9.47
2019-04-07T02:11:08.235Z,9.47
2019-04-07T02:13:58.389Z,9.39
2019-04-07T02:16:51.181Z,9.32
2019-04-07T02:19:36.897Z,9.21
2019-04-07T02:22:32.861Z,9.21
2019-04-07T02:25:19.930Z,9.14
2019-04-07T02:28:12.642Z,9.09
2019-04-07T02:30:58.919Z,9.02
2019-04-07T02:33:39.674Z,8.96
2019-04-07T02:36:26.757Z,8.89
2019-04-07T02:39:13.898Z,8.82
2019-04-07T02:42:06.824Z,8.77
2019-04-07T02:45:09.109Z,8.77
2019-04-07T02:47:44.594Z,8.68
2019-04-07T02:50:40.251Z,8.64
2019-04-07T02:53:33.037Z,8.64
2019-04-07T02:56:20.790Z,8.54
2019-04-07T02:58:54.914Z,8.48
2019-04-07T03:01:29.658Z,8.48
2019-04-07T03:04:20.429Z,8.39
2019-04-07T03:07:13.591Z,8.39
2019-04-07T03:09:58.598Z,8.37
2019-04-07T03:12:51.713Z,8.31
2019-04-07T03:15:38.819Z,8.31
2019-04-07T03:18:38.898Z,8.17
2019-04-07T03:21:31.512Z,8.17
2019-04-07T03:24:27.255Z,8.05
2019-04-07T03:27:19.983Z,8.01
2019-04-07T03:29:58.915Z,7.98
2019-04-07T03:32:50.943Z,7.98
2019-04-07T03:35:30.540Z,7.93
2019-04-07T03:38:10.216Z,7.87
2019-04-07T03:40:51.672Z,7.78
2019-04-07T03:43:42.703Z,7.73
2019-04-07T03:46:16.115Z,7.70
2019-04-07T03:49:06.054Z,7.70
2019-04-07T03:51:58.575Z,7.73
2019-04-07T03:54:43.540Z,7.74
2019-04-07T03:57:33.143Z,7.74
2019-04-07T04:00:27.654Z,7.65
2019-04-07T04:03:25.695Z,7.60
2019-04-07T04:06:12.806Z,7.55
2019-04-07T04:08:53.191Z,7.52
2019-04-07T04:11:43.644Z,7.48
2019-04-07T04:14:25.433Z,7.48
2019-04-07T04:16:54.359Z,7.40
2019-04-07T04:19:22.683Z,7.40
2019-04-07T04:21:51.083Z,7.34
2019-04-07T04:24:19.871Z,7.32
2019-04-07T04:26:47.877Z,7.29
2019-04-07T04:29:17.463Z,7.24
2019-04-07T04:31:47.853Z,7.19
2019-04-07T04:34:15.826Z,7.14
2019-04-07T04:36:44.584Z,7.10
2019-04-07T04:39:13.051Z,7.10
2019-04-07T04:41:42.582Z,7.01
2019-04-07T04:44:10.444Z,7.01
2019-04-07T04:46:38.760Z,6.94
2019-04-07T04:49:06.762Z,6.94
2019-04-07T04:51:37.856Z,6.86
2019-04-07T04:54:05.050Z,6.86
2019-04-07T04:56:33.239Z,6.82
2019-04-07T04:59:01.215Z,6.82
2019-04-07T05:01:28.902Z,6.82
2019-04-07T05:03:56.589Z,6.82
2019-04-07T05:06:24.324Z,6.76
2019-04-07T05:08:52.714Z,6.76
2019-04-07T05:11:21.212Z,6.73
2019-04-07T05:13:50.457Z,6.72
2019-04-07T05:16:21.341Z,6.72
2019-04-07T05:18:49.428Z,6.78
2019-04-07T05:21:17.135Z,6.78
2019-04-07T05:23:45.099Z,6.82
2019-04-07T05:26:13.547Z,6.92
2019-04-07T05:28:41.313Z,6.96
2019-04-07T05:31:08.977Z,6.96
2019-04-07T05:33:37.107Z,6.99
2019-04-07T05:36:05.028Z,7.03
2019-04-07T05:38:34.726Z,7.17
2019-04-07T05:41:02.980Z,7.17
2019-04-07T05:43:30.671Z,7.27
2019-04-07T05:45:59.213Z,7.44
2019-04-07T05:48:26.966Z,7.51
2019-04-07T05:51:00.287Z,7.59
2019-04-07T05:53:27.631Z,7.59
2019-04-07T05:55:56.237Z,7.77
2019-04-07T05:58:24.299Z,7.77
2019-04-07T06:00:52.155Z,7.99
2019-04-07T06:03:20.454Z,8.04
2019-04-07T06:05:51.082Z,8.13
2019-04-07T06:08:25.970Z,8.18
2019-04-07T06:10:47.098Z,8.26
2019-04-07T06:13:15.673Z,8.34
2019-04-07T06:15:43.471Z,8.43
2019-04-07T06:18:12.645Z,8.51
2019-04-07T06:20:44.112Z,8.64
2019-04-07T06:23:13.822Z,8.75
2019-04-07T06:25:43.299Z,8.84
2019-04-07T06:28:16.337Z,8.84
2019-04-07T06:30:42.867Z,8.99
2019-04-07T06:33:11.186Z,8.99
2019-04-07T06:35:39.156Z,9.13
2019-04-07T06:38:08.724Z,9.13
2019-04-07T06:40:36.143Z,9.20
2019-04-07T06:43:05.239Z,9.36
2019-04-07T06:45:42.203Z,9.48
2019-04-07T06:48:10.304Z,9.58
2019-04-07T06:50:49.913Z,9.58
2019-04-07T06:53:23.698Z,9.79
2019-04-07T06:56:14.309Z,9.79
2019-04-07T06:58:51.634Z,10.07
2019-04-07T07:01:30.712Z,10.21
2019-04-07T07:04:21.101Z,10.21
2019-04-07T07:06:55.771Z,10.35
2019-04-07T07:09:52.054Z,10.69
2019-04-07T07:12:39.967Z,10.88
2019-04-07T07:15:25.619Z,11.06
2019-04-07T07:18:14.226Z,11.22
2019-04-07T07:20:49.564Z,11.38
2019-04-07T07:23:23.157Z,11.53
2019-04-07T07:25:51.973Z,11.53
2019-04-07T07:28:19.607Z,11.68
2019-04-07T07:30:50.456Z,11.94
2019-04-07T07:33:16.795Z,11.94
2019-04-07T07:35:48.797Z,12.09
2019-04-07T07:38:14.889Z,12.22
2019-04-07T07:40:46.417Z,12.37
2019-04-07T07:43:12.456Z,12.55
2019-04-07T07:45:44.940Z,12.72
2019-04-07T07:48:09.904Z,13.02
2019-04-07T07:50:39.561Z,13.02
2019-04-07T07:53:07.029Z,13.18
2019-04-07T07:55:37.668Z,13.50
2019-04-07T07:58:04.379Z,13.64
2019-04-07T08:00:32.079Z,13.64
2019-04-07T08:03:00.343Z,13.98
2019-04-07T08:05:32.964Z,13.98
2019-04-07T08:07:57.205Z,14.16
2019-04-07T08:10:26.615Z,14.58
2019-04-07T08:12:54.502Z,14.58
2019-04-07T08:15:29.716Z,14.94
2019-04-07T08:17:54.590Z,14.94
2019-04-07T08:20:23.127Z,15.12
2019-04-07T08:22:51.514Z,15.31
2019-04-07T08:25:24.670Z,15.67
2019-04-07T08:27:51.699Z,15.67
2019-04-07T08:30:19.362Z,16.06
2019-04-07T08:32:48.917Z,16.23
2019-04-07T08:35:16.561Z,16.23
2019-04-07T08:37:46.458Z,16.58
2019-04-07T08:40:14.092Z,16.58
2019-04-07T08:42:41.811Z,16.71
2019-04-07T08:45:09.480Z,16.86
2019-04-07T08:47:38.017Z,16.99
2019-04-07T08:50:06.240Z,17.26
2019-04-07T08:52:34.354Z,17.26
2019-04-07T08:55:03.025Z,17.36
2019-04-07T08:57:32.307Z,17.50
2019-04-07T09:00:00.166Z,17.65
2019-04-07T09:02:30.111Z,17.81
2019-04-07T09:04:57.499Z,18.13
2019-04-07T09:07:27.632Z,18.32
2019-04-07T09:09:54.599Z,18.32
2019-04-07T09:12:24.912Z,18.52
2019-04-07T09:14:54.549Z,18.72
2019-04-07T09:17:45.731Z,18.92
2019-04-07T09:20:30.188Z,19.39
2019-04-07T09:23:15.688Z,19.39
2019-04-07T09:26:00.434Z,19.64
2019-04-07T09:28:43.072Z,20.24
2019-04-07T09:31:23.296Z,20.24
2019-04-07T09:34:10.065Z,20.58
2019-04-07T09:37:03.234Z,20.83
2019-04-07T09:39:59.224Z,21.10
2019-04-07T09:42:40.106Z,21.74
2019-04-07T09:45:44.875Z,21.74
2019-04-07T09:48:28.919Z,22.03
2019-04-07T09:51:27.519Z,22.66
2019-04-07T09:54:25.959Z,22.66
2019-04-07T09:57:27.997Z,23.23
2019-04-07T10:00:14.572Z,24.23
2019-04-07T10:03:02.259Z,24.56
2019-04-07T10:05:53.902Z,24.97
2019-04-07T10:08:44.323Z,24.97
2019-04-07T10:11:33.936Z,25.34
2019-04-07T10:14:19.605Z,25.62
2019-04-07T10:16:57.343Z,26.34
2019-04-07T10:19:37.990Z,26.63
2019-04-07T10:22:17.558Z,26.63
2019-04-07T10:25:07.487Z,27.27
2019-04-07T10:28:00.581Z,27.27
2019-04-07T10:30:48.642Z,27.85
2019-04-07T10:33:28.147Z,28.33
2019-04-07T10:36:13.751Z,28.46
2019-04-07T10:39:06.220Z,28.33
2019-04-07T10:42:02.614Z,28.56
2019-04-07T10:44:49.290Z,28.80
2019-04-07T10:47:26.712Z,28.80
2019-04-07T10:50:11.512Z,29.10
2019-04-07T10:53:06.778Z,29.01
2019-04-07T10:55:55.054Z,29.20
2019-04-07T10:58:32.433Z,29.49
2019-04-07T11:01:19.529Z,29.63
2019-04-07T11:04:27.321Z,29.74
2019-04-07T11:07:10.467Z,30.22
2019-04-07T11:10:03.757Z,30.22
2019-04-07T11:12:51.248Z,30.28
2019-04-07T11:16:02.200Z,30.29
2019-04-07T11:18:40.548Z,30.24
2019-04-07T11:21:36.005Z,30.26
2019-04-07T11:24:41.371Z,30.17
2019-04-07T11:27:31.162Z,30.14
2019-04-07T11:30:09.838Z,30.00
2019-04-07T11:32:47.839Z,29.73
2019-04-07T11:35:32.811Z,29.71
2019-04-07T11:38:22.993Z,29.76
2019-04-07T11:41:14.250Z,29.98
2019-04-07T11:44:01.923Z,29.94
2019-04-07T11:46:51.885Z,30.03
2019-04-07T11:49:25.388Z,29.51
2019-04-07T11:52:12.543Z,29.26
2019-04-07T11:55:17.381Z,28.60
2019-04-07T11:58:15.011Z,26.81
2019-04-07T12:01:13.685Z,26.81
2019-04-07T12:03:58.068Z,26.19
2019-04-07T12:06:37.506Z,26.89
2019-04-07T12:09:20.673Z,26.76
2019-04-07T12:12:04.783Z,26.76
2019-04-07T12:15:09.588Z,26.67
2019-04-07T12:17:58.076Z,27.13
2019-04-07T12:21:01.121Z,27.64
2019-04-07T12:23:52.802Z,27.36
2019-04-07T12:26:41.955Z,26.02
2019-04-07T12:29:20.026Z,24.02
2019-04-07T12:32:05.256Z,24.02
2019-04-07T12:34:54.706Z,24.82
2019-04-07T12:37:58.370Z,24.82
2019-04-07T12:41:13.414Z,27.06
2019-04-07T12:43:54.019Z,28.08
2019-04-07T12:46:40.745Z,28.08
2019-04-07T12:49:28.615Z,28.00
2019-04-07T12:52:14.129Z,28.00
2019-04-07T12:55:07.005Z,27.16
2019-04-07T12:57:41.371Z,27.16
2019-04-07T13:00:55.637Z,27.81
2019-04-07T13:03:29.951Z,28.05
2019-04-07T13:06:16.734Z,28.07
2019-04-07T13:09:16.161Z,27.98
2019-04-07T13:12:03.068Z,27.87
2019-04-07T13:14:55.701Z,27.10
2019-04-07T13:17:48.470Z,27.10
2019-04-07T13:20:35.176Z,26.90
2019-04-07T13:23:23.291Z,26.85
2019-04-07T13:26:26.786Z,26.70
2019-04-07T13:29:04.262Z,25.78
2019-04-07T13:31:51.031Z,25.40
2019-04-07T13:34:36.292Z,25.10
2019-04-07T13:37:14.571Z,24.46
2019-04-07T13:39:59.716Z,23.28
2019-04-07T13:42:44.499Z,23.28
2019-04-07T13:45:37.145Z,22.94
2019-04-07T13:48:24.189Z,22.80
2019-04-07T13:51:09.671Z,22.94
2019-04-07T13:54:08.020Z,23.15
2019-04-07T13:56:54.826Z,23.43
2019-04-07T13:59:45.211Z,23.65
2019-04-07T14:02:44.330Z,23.68
2019-04-07T14:05:21.223Z,23.72
2019-04-07T14:08:07.104Z,23.72
2019-04-07T14:10:53.954Z,23.51
2019-04-07T14:13:48.963Z,23.51
2019-04-07T14:16:42.312Z,23.52
2019-04-07T14:19:40.616Z,22.69
2019-04-07T14:22:24.457Z,22.69
2019-04-07T14:25:10.163Z,22.50
2019-04-07T14:27:53.714Z,22.59
2019-04-07T14:33:42.612Z,22.74
2019-04-07T14:36:30.110Z,23.88
2019-04-07T14:39:17.899Z,23.88
2019-04-07T14:42:07.382Z,24.41
2019-04-07T14:45:01.846Z,24.86
2019-04-07T14:47:48.261Z,24.84
2019-04-07T14:50:50.237Z,24.86
2019-04-07T14:53:45.395Z,24.96
2019-04-07T14:56:28.845Z,24.56
2019-04-07T14:59:23.960Z,23.89
2019-04-07T15:02:00.851Z,23.24
2019-04-07T15:04:35.693Z,22.58
2019-04-07T15:07:24.745Z,22.13
2019-04-07T15:09:57.781Z,21.78
2019-04-07T15:12:47.026Z,21.79
2019-04-07T15:15:14.734Z,21.79
2019-04-07T15:17:43.616Z,22.47
2019-04-07T15:20:14.363Z,23.02
2019-04-07T15:22:43.975Z,23.48
2019-04-07T15:25:12.924Z,23.70
2019-04-07T15:27:40.543Z,23.45
2019-04-07T15:30:10.582Z,23.71
2019-04-07T15:32:38.355Z,24.20
2019-04-07T15:35:06.278Z,24.46
2019-04-07T15:37:34.697Z,24.46
2019-04-07T15:40:04.750Z,23.13
2019-04-07T15:42:40.352Z,22.59
2019-04-07T15:45:02.475Z,22.59
2019-04-07T15:47:30.988Z,22.15
2019-04-07T15:49:59.514Z,21.79
2019-04-07T15:52:30.540Z,21.89
2019-04-07T15:54:57.339Z,22.47
2019-04-07T15:57:25.796Z,23.08
2019-04-07T16:00:03.684Z,23.71
2019-04-07T16:02:30.366Z,24.61
2019-04-07T16:05:03.266Z,24.61
2019-04-07T16:07:27.334Z,25.00
2019-04-07T16:09:57.018Z,24.58
2019-04-07T16:12:25.226Z,24.58
2019-04-07T16:14:53.511Z,23.85
2019-04-07T16:17:21.533Z,23.10
2019-04-07T16:19:53.096Z,22.05
2019-04-07T16:22:18.442Z,21.71
2019-04-07T16:24:46.679Z,21.71
2019-04-07T16:27:17.272Z,21.45
2019-04-07T16:29:46.868Z,21.26
2019-04-07T16:32:15.712Z,21.20
2019-04-07T16:34:44.053Z,21.12
2019-04-07T16:37:12.393Z,21.03
2019-04-07T16:39:40.336Z,20.92
2019-04-07T16:42:14.086Z,20.80
2019-04-07T16:44:44.817Z,20.65
2019-04-07T16:47:21.693Z,20.51
2019-04-07T16:49:50.338Z,20.37
2019-04-07T16:52:20.377Z,20.21
2019-04-07T16:54:47.574Z,20.09
2019-04-07T16:57:17.300Z,19.98
2019-04-07T16:59:45.569Z,19.84
2019-04-07T17:02:14.469Z,19.69
2019-04-07T17:04:43.581Z,19.52
2019-04-07T17:07:15.339Z,19.36
2019-04-07T17:09:41.462Z,19.20
2019-04-07T17:12:10.949Z,19.04
2019-04-07T17:14:39.445Z,18.90
2019-04-07T17:17:08.217Z,18.75
2019-04-07T17:19:38.436Z,18.62
2019-04-07T17:22:06.123Z,18.49
2019-04-07T17:24:34.523Z,18.36
2019-04-07T17:27:03.127Z,18.14
2019-04-07T17:29:38.381Z,18.14
2019-04-07T17:32:06.902Z,18.04
2019-04-07T17:34:35.520Z,17.95
2019-04-07T17:37:05.274Z,17.84
2019-04-07T17:39:43.942Z,17.76
2019-04-07T17:42:18.441Z,17.66
2019-04-07T17:45:03.433Z,17.54
2019-04-07T17:47:53.122Z,17.44
2019-04-07T17:50:38.918Z,17.31
2019-04-07T17:53:36.662Z,17.15
2019-04-07T17:56:20.125Z,16.91
2019-04-07T17:59:10.678Z,16.79
2019-04-07T18:01:56.553Z,16.79
2019-04-07T18:05:01.360Z,16.68
2019-04-07T18:07:48.765Z,16.57
2019-04-07T18:10:39.151Z,16.50
2019-04-07T18:13:25.075Z,16.38
2019-04-07T18:16:12.228Z,16.38
2019-04-07T18:18:51.731Z,16.27
2019-04-07T18:21:52.149Z,16.19
2019-04-07T18:24:37.766Z,16.19
2019-04-07T18:27:23.241Z,16.01
2019-04-07T18:29:59.536Z,15.91
2019-04-07T18:32:44.897Z,15.79
2019-04-07T18:35:32.924Z,15.79
2019-04-07T18:38:28.579Z,15.64
2019-04-07T18:41:24.397Z,15.51
2019-04-07T18:44:10.934Z,15.39
2019-04-07T18:47:01.461Z,15.23
2019-04-07T18:49:48.445Z,15.17
2019-04-07T18:52:33.638Z,15.11
2019-04-07T18:55:27.364Z,15.08
2019-04-07T18:58:15.031Z,15.08
2019-04-07T19:01:04.485Z,15.15
2019-04-07T19:03:53.331Z,15.22
2019-04-07T19:06:34.462Z,15.24
2019-04-07T19:09:15.013Z,15.24
2019-04-07T19:12:04.230Z,15.24
2019-04-07T19:14:55.978Z,15.11
2019-04-07T19:17:40.536Z,14.99
2019-04-07T19:20:30.379Z,14.99
2019-04-07T19:23:17.239Z,14.86
2019-04-07T19:26:17.383Z,14.65
2019-04-07T19:28:58.686Z,14.58
2019-04-07T19:31:48.063Z,14.58
2019-04-07T19:34:35.583Z,14.49
2019-04-07T19:37:18.479Z,14.40
2019-04-07T19:40:09.018Z,14.29
2019-04-07T19:42:47.089Z,14.20
2019-04-07T19:45:36.003Z,14.03
2019-04-07T19:48:28.824Z,13.96
2019-04-07T19:51:14.339Z,13.96
2019-04-07T19:54:09.311Z,13.89
2019-04-07T19:56:47.999Z,13.85
2019-04-07T19:59:44.219Z,13.79
2019-04-07T20:02:42.918Z,13.75
2019-04-07T20:05:32.336Z,13.69
2019-04-07T20:08:22.961Z,13.61
2019-04-07T20:11:12.476Z,13.46
2019-04-07T20:14:14.034Z,13.38
2019-04-07T20:17:18.909Z,13.28
2019-04-07T20:19:53.591Z,13.28
2019-04-07T20:22:40.038Z,13.09
2019-04-07T20:25:23.478Z,13.01
2019-04-07T20:28:17.359Z,13.01
2019-04-07T20:31:12.634Z,12.96
2019-04-07T20:34:06.030Z,12.88
2019-04-07T20:36:57.915Z,12.83
2019-04-07T20:39:35.415Z,12.79
2019-04-07T20:42:26.924Z,12.74
2019-04-07T20:45:25.362Z,12.69
2019-04-07T20:48:12.131Z,12.65
2019-04-07T20:51:10.313Z,12.60
2019-04-07T20:53:51.514Z,12.45
2019-04-07T20:56:48.468Z,12.39
2019-04-07T20:59:48.583Z,12.31
2019-04-07T21:02:27.057Z,12.24
2019-04-07T21:05:14.539Z,12.19
2019-04-07T21:08:10.405Z,12.19
2019-04-07T21:10:56.024Z,12.09
2019-04-07T21:13:37.265Z,11.92
2019-04-07T21:16:27.556Z,11.85
2019-04-07T21:19:06.869Z,11.79
2019-04-07T21:21:53.744Z,11.79
2019-04-07T21:24:32.258Z,11.75
2019-04-07T21:27:10.987Z,11.62
2019-04-07T21:29:45.932Z,11.62
2019-04-07T21:32:31.538Z,11.58
2019-04-07T21:35:22.052Z,11.53
2019-04-07T21:38:11.543Z,11.43
2019-04-07T21:40:50.146Z,11.38
2019-04-07T21:43:46.651Z,11.38
2019-04-07T21:46:33.173Z,11.35
2019-04-07T21:49:17.895Z,11.27
2019-04-07T21:51:59.011Z,11.27
2019-04-07T21:54:40.906Z,11.20
2019-04-07T21:57:36.497Z,11.19
2019-04-07T22:00:32.084Z,11.19
2019-04-07T22:03:23.930Z,11.20
2019-04-07T22:06:17.622Z,11.14
2019-04-07T22:08:59.089Z,11.14
2019-04-07T22:11:29.320Z,11.06
2019-04-07T22:13:57.463Z,11.01
2019-04-07T22:16:31.389Z,11.01
2019-04-07T22:18:58.745Z,10.95
2019-04-07T22:21:26.497Z,10.95
2019-04-07T22:23:56.178Z,10.92
2019-04-07T22:26:23.803Z,10.87
2019-04-07T22:28:51.476Z,10.79
2019-04-07T22:31:24.850Z,10.79
2019-04-07T22:33:53.526Z,10.66
2019-04-07T22:36:23.018Z,10.66
2019-04-07T22:38:54.408Z,10.62
2019-04-07T22:41:20.170Z,10.61
2019-04-07T22:43:50.400Z,10.59
2019-04-07T22:46:24.584Z,10.57
2019-04-07T22:48:50.431Z,10.56
2019-04-07T22:51:18.809Z,10.54
2019-04-07T22:53:46.411Z,10.52
2019-04-07T22:56:14.056Z,10.39
2019-04-07T22:58:42.311Z,10.39
2019-04-07T23:01:11.060Z,10.35
2019-04-07T23:03:39.089Z,10.32
2019-04-07T23:06:06.744Z,10.29
2019-04-07T23:08:35.038Z,10.29
2019-04-07T23:11:04.100Z,10.25
2019-04-07T23:13:32.182Z,10.20
2019-04-07T23:16:09.995Z,10.09
2019-04-07T23:18:29.712Z,10.05
2019-04-07T23:20:57.583Z,10.05
2019-04-07T23:23:26.033Z,10.00
2019-04-07T23:25:53.655Z,9.95
2019-04-07T23:28:21.564Z,9.90
2019-04-07T23:30:49.244Z,9.86
2019-04-07T23:33:16.764Z,9.81
2019-04-07T23:35:44.839Z,9.77
2019-04-07T23:38:13.355Z,9.72
2019-04-07T23:40:41.905Z,9.67
2019-04-07T23:43:09.509Z,9.60
2019-04-07T23:45:37.798Z,9.51
2019-04-07T23:48:06.860Z,9.46
2019-04-07T23:50:34.565Z,9.46
2019-04-07T23:53:02.175Z,9.39
2019-04-07T23:55:30.074Z,9.40
2019-04-07T23:57:57.751Z,9.40
